sensor_id;sensor_type;location;lat;lon;timestamp;pressure;altitude;pressure_sealevel;temperature
75811;BMP280;64449;50.016;19.954;2023-04-25T00:00:31;97577.04;;;13.90
75811;BMP280;64449;50.016;19.954;2023-04-25T00:02:56;97577.32;;;13.89
75811;BMP280;64449;50.016;19.954;2023-04-25T00:05:23;97577.04;;;13.87
75811;BMP280;64449;50.016;19.954;2023-04-25T00:07:51;97581.95;;;13.87
75811;BMP280;64449;50.016;19.954;2023-04-25T00:10:17;97582.81;;;13.87
75811;BMP280;64449;50.016;19.954;2023-04-25T00:12:43;97589.27;;;13.86
75811;BMP280;64449;50.016;19.954;2023-04-25T00:15:09;97594.73;;;13.85
75811;BMP280;64449;50.016;19.954;2023-04-25T00:17:35;97595.26;;;13.84
75811;BMP280;64449;50.016;19.954;2023-04-25T00:20:03;97597.02;;;13.81
75811;BMP280;64449;50.016;19.954;2023-04-25T00:22:35;97599.24;;;13.79
75811;BMP280;64449;50.016;19.954;2023-04-25T00:25:03;97601.20;;;13.75
75811;BMP280;64449;50.016;19.954;2023-04-25T00:27:29;97601.35;;;13.75
75811;BMP280;64449;50.016;19.954;2023-04-25T00:29:54;97602.10;;;13.73
75811;BMP280;64449;50.016;19.954;2023-04-25T00:32:20;97603.23;;;13.73
75811;BMP280;64449;50.016;19.954;2023-04-25T00:34:45;97606.19;;;13.70
75811;BMP280;64449;50.016;19.954;2023-04-25T00:37:11;97602.98;;;13.66
75811;BMP280;64449;50.016;19.954;2023-04-25T00:39:37;97604.23;;;13.62
75811;BMP280;64449;50.016;19.954;2023-04-25T00:42:03;97603.23;;;13.59
75811;BMP280;64449;50.016;19.954;2023-04-25T00:44:30;97603.83;;;13.56
75811;BMP280;64449;50.016;19.954;2023-04-25T00:46:57;97606.86;;;13.53
75811;BMP280;64449;50.016;19.954;2023-04-25T00:49:23;97606.64;;;13.50
75811;BMP280;64449;50.016;19.954;2023-04-25T00:51:48;97605.61;;;13.49
75811;BMP280;64449;50.016;19.954;2023-04-25T00:54:14;97605.39;;;13.48
75811;BMP280;64449;50.016;19.954;2023-04-25T00:56:41;97609.21;;;13.46
75811;BMP280;64449;50.016;19.954;2023-04-25T00:59:06;97615.18;;;13.44
75811;BMP280;64449;50.016;19.954;2023-04-25T01:01:34;97613.92;;;13.43
75811;BMP280;64449;50.016;19.954;2023-04-25T01:04:00;97614.52;;;13.43
75811;BMP280;64449;50.016;19.954;2023-04-25T01:06:26;97614.48;;;13.42
75811;BMP280;64449;50.016;19.954;2023-04-25T01:08:52;97615.14;;;13.42
75811;BMP280;64449;50.016;19.954;2023-04-25T01:11:18;97612.98;;;13.40
75811;BMP280;64449;50.016;19.954;2023-04-25T01:13:44;97617.80;;;13.38
75811;BMP280;64449;50.016;19.954;2023-04-25T01:16:09;97617.52;;;13.35
75811;BMP280;64449;50.016;19.954;2023-04-25T01:18:36;97616.40;;;13.33
75811;BMP280;64449;50.016;19.954;2023-04-25T01:21:09;97618.96;;;13.31
75811;BMP280;64449;50.016;19.954;2023-04-25T01:23:40;97622.86;;;13.30
75811;BMP280;64449;50.016;19.954;2023-04-25T01:26:06;97620.35;;;13.29
75811;BMP280;64449;50.016;19.954;2023-04-25T01:28:33;97623.02;;;13.28
75811;BMP280;64449;50.016;19.954;2023-04-25T01:30:59;97622.11;;;13.26
75811;BMP280;64449;50.016;19.954;2023-04-25T01:33:25;97619.29;;;13.24
75811;BMP280;64449;50.016;19.954;2023-04-25T01:35:51;97620.17;;;13.21
75811;BMP280;64449;50.016;19.954;2023-04-25T01:38:17;97622.14;;;13.18
75811;BMP280;64449;50.016;19.954;2023-04-25T01:40:45;97622.66;;;13.16
75811;BMP280;64449;50.016;19.954;2023-04-25T01:43:11;97622.42;;;13.16
75811;BMP280;64449;50.016;19.954;2023-04-25T01:45:38;97620.90;;;13.15
75811;BMP280;64449;50.016;19.954;2023-04-25T01:48:11;97621.26;;;13.16
75811;BMP280;64449;50.016;19.954;2023-04-25T01:50:38;97621.16;;;13.15
75811;BMP280;64449;50.016;19.954;2023-04-25T01:53:05;97624.92;;;13.12
75811;BMP280;64449;50.016;19.954;2023-04-25T01:55:31;97627.08;;;13.10
75811;BMP280;64449;50.016;19.954;2023-04-25T01:57:57;97625.65;;;13.08
75811;BMP280;64449;50.016;19.954;2023-04-25T02:00:23;97632.27;;;13.08
75811;BMP280;64449;50.016;19.954;2023-04-25T02:02:48;97633.65;;;13.08
75811;BMP280;64449;50.016;19.954;2023-04-25T02:05:16;97637.71;;;13.08
75811;BMP280;64449;50.016;19.954;2023-04-25T02:07:42;97637.04;;;13.06
75811;BMP280;64449;50.016;19.954;2023-04-25T02:10:08;97639.27;;;13.05
75811;BMP280;64449;50.016;19.954;2023-04-25T02:12:34;97637.80;;;13.03
75811;BMP280;64449;50.016;19.954;2023-04-25T02:15:00;97637.20;;;13.03
75811;BMP280;64449;50.016;19.954;2023-04-25T02:17:25;97637.00;;;13.04
75811;BMP280;64449;50.016;19.954;2023-04-25T02:19:51;97639.06;;;13.07
75811;BMP280;64449;50.016;19.954;2023-04-25T02:22:16;97640.08;;;13.07
75811;BMP280;64449;50.016;19.954;2023-04-25T02:24:42;97640.86;;;13.06
75811;BMP280;64449;50.016;19.954;2023-04-25T02:27:07;97641.88;;;13.06
75811;BMP280;64449;50.016;19.954;2023-04-25T02:29:33;97641.31;;;13.04
75811;BMP280;64449;50.016;19.954;2023-04-25T02:31:58;97635.83;;;13.02
75811;BMP280;64449;50.016;19.954;2023-04-25T02:34:23;97642.41;;;13.02
75811;BMP280;64449;50.016;19.954;2023-04-25T02:36:49;97642.23;;;13.02
75811;BMP280;64449;50.016;19.954;2023-04-25T02:39:16;97640.15;;;13.02
75811;BMP280;64449;50.016;19.954;2023-04-25T02:41:42;97637.10;;;13.00
75811;BMP280;64449;50.016;19.954;2023-04-25T02:44:07;97641.57;;;13.00
75811;BMP280;64449;50.016;19.954;2023-04-25T02:46:32;97640.77;;;13.00
75811;BMP280;64449;50.016;19.954;2023-04-25T02:48:58;97641.38;;;12.99
75811;BMP280;64449;50.016;19.954;2023-04-25T02:51:23;97638.96;;;13.01
75811;BMP280;64449;50.016;19.954;2023-04-25T02:53:48;97636.84;;;13.02
75811;BMP280;64449;50.016;19.954;2023-04-25T02:56:14;97632.41;;;13.04
75811;BMP280;64449;50.016;19.954;2023-04-25T02:58:39;97632.48;;;13.07
75811;BMP280;64449;50.016;19.954;2023-04-25T03:01:05;97631.54;;;13.10
75811;BMP280;64449;50.016;19.954;2023-04-25T03:03:30;97630.21;;;13.13
75811;BMP280;64449;50.016;19.954;2023-04-25T03:05:56;97627.70;;;13.15
75811;BMP280;64449;50.016;19.954;2023-04-25T03:08:21;97623.30;;;13.16
75811;BMP280;64449;50.016;19.954;2023-04-25T03:10:47;97625.52;;;13.16
75811;BMP280;64449;50.016;19.954;2023-04-25T03:13:13;97626.11;;;13.17
75811;BMP280;64449;50.016;19.954;2023-04-25T03:15:38;97626.52;;;13.16
75811;BMP280;64449;50.016;19.954;2023-04-25T03:18:04;97627.86;;;13.15
75811;BMP280;64449;50.016;19.954;2023-04-25T03:20:29;97626.53;;;13.15
75811;BMP280;64449;50.016;19.954;2023-04-25T03:22:55;97627.20;;;13.15
75811;BMP280;64449;50.016;19.954;2023-04-25T03:25:20;97630.99;;;13.16
75811;BMP280;64449;50.016;19.954;2023-04-25T03:27:46;97629.23;;;13.18
75811;BMP280;64449;50.016;19.954;2023-04-25T03:30:11;97632.42;;;13.18
75811;BMP280;64449;50.016;19.954;2023-04-25T03:32:37;97637.16;;;13.19
75811;BMP280;64449;50.016;19.954;2023-04-25T03:35:03;97641.60;;;13.18
75811;BMP280;64449;50.016;19.954;2023-04-25T03:37:28;97648.86;;;13.17
75811;BMP280;64449;50.016;19.954;2023-04-25T03:39:54;97647.80;;;13.15
75811;BMP280;64449;50.016;19.954;2023-04-25T03:42:19;97649.95;;;13.09
75811;BMP280;64449;50.016;19.954;2023-04-25T03:44:45;97649.99;;;13.03
75811;BMP280;64449;50.016;19.954;2023-04-25T03:47:10;97649.79;;;13.00
75811;BMP280;64449;50.016;19.954;2023-04-25T03:49:36;97654.17;;;12.96
75811;BMP280;64449;50.016;19.954;2023-04-25T03:52:02;97657.59;;;12.92
75811;BMP280;64449;50.016;19.954;2023-04-25T03:54:28;97659.83;;;12.87
75811;BMP280;64449;50.016;19.954;2023-04-25T03:56:53;97660.86;;;12.84
75811;BMP280;64449;50.016;19.954;2023-04-25T03:59:19;97665.28;;;12.81
75811;BMP280;64449;50.016;19.954;2023-04-25T04:01:44;97668.14;;;12.77
75811;BMP280;64449;50.016;19.954;2023-04-25T04:04:09;97672.39;;;12.73
75811;BMP280;64449;50.016;19.954;2023-04-25T04:06:35;97674.77;;;12.68
75811;BMP280;64449;50.016;19.954;2023-04-25T04:09:02;97679.45;;;12.61
75811;BMP280;64449;50.016;19.954;2023-04-25T04:11:28;97683.27;;;12.55
75811;BMP280;64449;50.016;19.954;2023-04-25T04:13:53;97688.02;;;12.49
75811;BMP280;64449;50.016;19.954;2023-04-25T04:16:18;97686.58;;;12.47
75811;BMP280;64449;50.016;19.954;2023-04-25T04:18:45;97690.02;;;12.43
75811;BMP280;64449;50.016;19.954;2023-04-25T04:21:10;97694.23;;;12.40
75811;BMP280;64449;50.016;19.954;2023-04-25T04:23:36;97691.88;;;12.38
75811;BMP280;64449;50.016;19.954;2023-04-25T04:26:02;97702.50;;;12.35
75811;BMP280;64449;50.016;19.954;2023-04-25T04:28:28;97704.61;;;12.34
75811;BMP280;64449;50.016;19.954;2023-04-25T04:30:53;97704.13;;;12.33
75811;BMP280;64449;50.016;19.954;2023-04-25T04:33:19;97705.14;;;12.36
75811;BMP280;64449;50.016;19.954;2023-04-25T04:35:46;97709.13;;;12.37
75811;BMP280;64449;50.016;19.954;2023-04-25T04:38:12;97711.44;;;12.37
75811;BMP280;64449;50.016;19.954;2023-04-25T04:40:40;97711.27;;;12.36
75811;BMP280;64449;50.016;19.954;2023-04-25T04:43:07;97711.95;;;12.33
75811;BMP280;64449;50.016;19.954;2023-04-25T04:45:34;97716.04;;;12.31
75811;BMP280;64449;50.016;19.954;2023-04-25T04:47:59;97715.58;;;12.27
75811;BMP280;64449;50.016;19.954;2023-04-25T04:50:25;97717.45;;;12.24
75811;BMP280;64449;50.016;19.954;2023-04-25T04:52:51;97719.81;;;12.25
75811;BMP280;64449;50.016;19.954;2023-04-25T04:55:17;97719.11;;;12.26
75811;BMP280;64449;50.016;19.954;2023-04-25T04:57:42;97721.15;;;12.26
75811;BMP280;64449;50.016;19.954;2023-04-25T05:00:08;97721.95;;;12.29
75811;BMP280;64449;50.016;19.954;2023-04-25T05:02:37;97719.34;;;12.28
75811;BMP280;64449;50.016;19.954;2023-04-25T05:05:04;97722.55;;;12.29
75811;BMP280;64449;50.016;19.954;2023-04-25T05:07:30;97725.93;;;12.30
75811;BMP280;64449;50.016;19.954;2023-04-25T05:09:55;97723.24;;;12.32
75811;BMP280;64449;50.016;19.954;2023-04-25T05:12:20;97725.80;;;12.34
75811;BMP280;64449;50.016;19.954;2023-04-25T05:14:46;97728.72;;;12.37
75811;BMP280;64449;50.016;19.954;2023-04-25T05:17:11;97729.83;;;12.38
75811;BMP280;64449;50.016;19.954;2023-04-25T05:19:36;97730.54;;;12.38
75811;BMP280;64449;50.016;19.954;2023-04-25T05:22:02;97733.46;;;12.40
75811;BMP280;64449;50.016;19.954;2023-04-25T05:24:28;97734.14;;;12.41
75811;BMP280;64449;50.016;19.954;2023-04-25T05:26:53;97735.02;;;12.42
75811;BMP280;64449;50.016;19.954;2023-04-25T05:29:18;97737.38;;;12.43
75811;BMP280;64449;50.016;19.954;2023-04-25T05:31:44;97741.99;;;12.42
75811;BMP280;64449;50.016;19.954;2023-04-25T05:34:10;97743.06;;;12.41
75811;BMP280;64449;50.016;19.954;2023-04-25T05:36:35;97742.80;;;12.40
75811;BMP280;64449;50.016;19.954;2023-04-25T05:39:00;97742.12;;;12.37
75811;BMP280;64449;50.016;19.954;2023-04-25T05:41:26;97751.62;;;12.35
75811;BMP280;64449;50.016;19.954;2023-04-25T05:43:51;97748.23;;;12.34
75811;BMP280;64449;50.016;19.954;2023-04-25T05:46:16;97749.45;;;12.33
75811;BMP280;64449;50.016;19.954;2023-04-25T05:48:45;97755.95;;;12.28
75811;BMP280;64449;50.016;19.954;2023-04-25T05:51:10;97757.20;;;12.22
75811;BMP280;64449;50.016;19.954;2023-04-25T05:53:35;97758.44;;;12.19
75811;BMP280;64449;50.016;19.954;2023-04-25T05:56:01;97761.50;;;12.16
75811;BMP280;64449;50.016;19.954;2023-04-25T05:58:27;97762.45;;;12.14
75811;BMP280;64449;50.016;19.954;2023-04-25T06:00:52;97767.07;;;12.13
75811;BMP280;64449;50.016;19.954;2023-04-25T06:03:17;97767.16;;;12.14
75811;BMP280;64449;50.016;19.954;2023-04-25T06:05:43;97770.57;;;12.13
75811;BMP280;64449;50.016;19.954;2023-04-25T06:08:09;97774.73;;;12.13
75811;BMP280;64449;50.016;19.954;2023-04-25T06:10:35;97777.91;;;12.14
75811;BMP280;64449;50.016;19.954;2023-04-25T06:13:01;97779.46;;;12.18
75811;BMP280;64449;50.016;19.954;2023-04-25T06:15:26;97780.31;;;12.22
75811;BMP280;64449;50.016;19.954;2023-04-25T06:17:52;97777.88;;;12.26
75811;BMP280;64449;50.016;19.954;2023-04-25T06:20:17;97781.30;;;12.29
75811;BMP280;64449;50.016;19.954;2023-04-25T06:22:43;97783.79;;;12.32
75811;BMP280;64449;50.016;19.954;2023-04-25T06:25:08;97782.73;;;12.34
75811;BMP280;64449;50.016;19.954;2023-04-25T06:27:34;97782.77;;;12.39
75811;BMP280;64449;50.016;19.954;2023-04-25T06:29:59;97785.95;;;12.45
75811;BMP280;64449;50.016;19.954;2023-04-25T06:32:25;97789.67;;;12.56
75811;BMP280;64449;50.016;19.954;2023-04-25T06:34:53;97785.54;;;12.68
75811;BMP280;64449;50.016;19.954;2023-04-25T06:37:18;97784.46;;;12.75
75811;BMP280;64449;50.016;19.954;2023-04-25T06:39:44;97785.08;;;12.81
75811;BMP280;64449;50.016;19.954;2023-04-25T06:42:09;97784.15;;;12.90
75811;BMP280;64449;50.016;19.954;2023-04-25T06:44:35;97788.77;;;12.94
75811;BMP280;64449;50.016;19.954;2023-04-25T06:47:01;97784.91;;;12.92
75811;BMP280;64449;50.016;19.954;2023-04-25T06:49:26;97786.09;;;12.90
75811;BMP280;64449;50.016;19.954;2023-04-25T06:51:51;97787.09;;;12.95
75811;BMP280;64449;50.016;19.954;2023-04-25T06:54:17;97785.34;;;13.02
75811;BMP280;64449;50.016;19.954;2023-04-25T06:56:42;97784.27;;;13.07
75811;BMP280;64449;50.016;19.954;2023-04-25T06:59:08;97782.81;;;13.07
75811;BMP280;64449;50.016;19.954;2023-04-25T07:01:34;97782.70;;;13.08
75811;BMP280;64449;50.016;19.954;2023-04-25T07:04:00;97782.96;;;13.07
75811;BMP280;64449;50.016;19.954;2023-04-25T07:06:26;97784.00;;;13.05
75811;BMP280;64449;50.016;19.954;2023-04-25T07:08:53;97784.66;;;13.04
75811;BMP280;64449;50.016;19.954;2023-04-25T07:11:18;97781.92;;;12.99
75811;BMP280;64449;50.016;19.954;2023-04-25T07:13:43;97782.08;;;12.96
75811;BMP280;64449;50.016;19.954;2023-04-25T07:16:09;97786.60;;;12.91
75811;BMP280;64449;50.016;19.954;2023-04-25T07:18:34;97783.95;;;12.87
75811;BMP280;64449;50.016;19.954;2023-04-25T07:21:00;97785.45;;;12.84
75811;BMP280;64449;50.016;19.954;2023-04-25T07:23:25;97786.24;;;12.83
75811;BMP280;64449;50.016;19.954;2023-04-25T07:25:50;97785.18;;;12.81
75811;BMP280;64449;50.016;19.954;2023-04-25T07:28:16;97788.34;;;12.80
75811;BMP280;64449;50.016;19.954;2023-04-25T07:30:41;97792.81;;;12.88
75811;BMP280;64449;50.016;19.954;2023-04-25T07:33:07;97790.73;;;13.02
75811;BMP280;64449;50.016;19.954;2023-04-25T07:35:32;97788.50;;;13.17
75811;BMP280;64449;50.016;19.954;2023-04-25T07:37:57;97790.75;;;13.30
75811;BMP280;64449;50.016;19.954;2023-04-25T07:40:24;97789.36;;;13.43
75811;BMP280;64449;50.016;19.954;2023-04-25T07:42:49;97793.89;;;13.60
75811;BMP280;64449;50.016;19.954;2023-04-25T07:45:15;97792.69;;;13.79
75811;BMP280;64449;50.016;19.954;2023-04-25T07:47:40;97795.71;;;13.88
75811;BMP280;64449;50.016;19.954;2023-04-25T07:50:06;97794.61;;;14.01
75811;BMP280;64449;50.016;19.954;2023-04-25T07:52:32;97794.00;;;14.12
75811;BMP280;64449;50.016;19.954;2023-04-25T07:54:57;97794.40;;;14.19
75811;BMP280;64449;50.016;19.954;2023-04-25T07:57:24;97796.00;;;14.23
75811;BMP280;64449;50.016;19.954;2023-04-25T07:59:49;97794.03;;;14.17
75811;BMP280;64449;50.016;19.954;2023-04-25T08:02:15;97789.17;;;14.11
75811;BMP280;64449;50.016;19.954;2023-04-25T08:04:40;97787.65;;;14.01
75811;BMP280;64449;50.016;19.954;2023-04-25T08:07:06;97786.10;;;14.00
75811;BMP280;64449;50.016;19.954;2023-04-25T08:09:31;97786.88;;;14.07
75811;BMP280;64449;50.016;19.954;2023-04-25T08:12:00;97787.05;;;14.16
75811;BMP280;64449;50.016;19.954;2023-04-25T08:14:26;97786.05;;;14.21
75811;BMP280;64449;50.016;19.954;2023-04-25T08:16:51;97784.05;;;14.26
75811;BMP280;64449;50.016;19.954;2023-04-25T08:19:16;97785.83;;;14.26
75811;BMP280;64449;50.016;19.954;2023-04-25T08:21:42;97785.91;;;14.20
75811;BMP280;64449;50.016;19.954;2023-04-25T08:24:07;97786.92;;;14.14
75811;BMP280;64449;50.016;19.954;2023-04-25T08:26:33;97786.79;;;14.10
75811;BMP280;64449;50.016;19.954;2023-04-25T08:28:59;97784.10;;;14.05
75811;BMP280;64449;50.016;19.954;2023-04-25T08:31:25;97784.91;;;13.98
75811;BMP280;64449;50.016;19.954;2023-04-25T08:33:50;97790.89;;;13.98
75811;BMP280;64449;50.016;19.954;2023-04-25T08:36:17;97788.67;;;13.97
75811;BMP280;64449;50.016;19.954;2023-04-25T08:38:43;97792.13;;;13.93
75811;BMP280;64449;50.016;19.954;2023-04-25T08:41:11;97790.89;;;13.88
75811;BMP280;64449;50.016;19.954;2023-04-25T08:43:37;97792.15;;;13.81
75811;BMP280;64449;50.016;19.954;2023-04-25T08:46:02;97790.95;;;13.78
75811;BMP280;64449;50.016;19.954;2023-04-25T08:48:32;97790.48;;;13.77
75811;BMP280;64449;50.016;19.954;2023-04-25T08:50:57;97789.52;;;13.76
75811;BMP280;64449;50.016;19.954;2023-04-25T08:53:31;97790.83;;;13.74
75811;BMP280;64449;50.016;19.954;2023-04-25T08:55:58;97793.48;;;13.68
75811;BMP280;64449;50.016;19.954;2023-04-25T08:58:24;97800.44;;;13.60
75811;BMP280;64449;50.016;19.954;2023-04-25T09:00:51;97801.52;;;13.54
75811;BMP280;64449;50.016;19.954;2023-04-25T09:03:17;97803.44;;;13.47
75811;BMP280;64449;50.016;19.954;2023-04-25T09:05:43;97801.80;;;13.41
75811;BMP280;64449;50.016;19.954;2023-04-25T09:08:08;97801.60;;;13.38
75811;BMP280;64449;50.016;19.954;2023-04-25T09:10:34;97804.60;;;13.38
75811;BMP280;64449;50.016;19.954;2023-04-25T09:13:13;97804.77;;;13.43
75811;BMP280;64449;50.016;19.954;2023-04-25T09:15:56;97807.30;;;13.51
75811;BMP280;64449;50.016;19.954;2023-04-25T09:18:27;97809.52;;;13.61
75811;BMP280;64449;50.016;19.954;2023-04-25T09:20:54;97810.22;;;13.72
75811;BMP280;64449;50.016;19.954;2023-04-25T09:23:21;97809.32;;;13.79
75811;BMP280;64449;50.016;19.954;2023-04-25T09:25:48;97811.07;;;13.81
75811;BMP280;64449;50.016;19.954;2023-04-25T09:28:14;97811.95;;;13.80
75811;BMP280;64449;50.016;19.954;2023-04-25T09:30:39;97810.16;;;13.79
75811;BMP280;64449;50.016;19.954;2023-04-25T09:33:10;97813.23;;;13.76
75811;BMP280;64449;50.016;19.954;2023-04-25T09:35:36;97814.45;;;13.75
75811;BMP280;64449;50.016;19.954;2023-04-25T09:38:10;97814.92;;;13.73
75811;BMP280;64449;50.016;19.954;2023-04-25T09:40:46;97813.52;;;13.72
75811;BMP280;64449;50.016;19.954;2023-04-25T09:43:19;97812.14;;;13.70
75811;BMP280;64449;50.016;19.954;2023-04-25T09:45:46;97811.83;;;13.68
75811;BMP280;64449;50.016;19.954;2023-04-25T09:48:20;97808.85;;;13.65
75811;BMP280;64449;50.016;19.954;2023-04-25T09:51:03;97807.75;;;13.61
75811;BMP280;64449;50.016;19.954;2023-04-25T09:53:29;97809.52;;;13.60
75811;BMP280;64449;50.016;19.954;2023-04-25T09:55:59;97805.99;;;13.60
75811;BMP280;64449;50.016;19.954;2023-04-25T09:58:25;97803.95;;;13.65
75811;BMP280;64449;50.016;19.954;2023-04-25T10:00:52;97806.89;;;13.72
75811;BMP280;64449;50.016;19.954;2023-04-25T10:03:20;97804.55;;;13.82
75811;BMP280;64449;50.016;19.954;2023-04-25T10:05:46;97805.92;;;13.95
75811;BMP280;64449;50.016;19.954;2023-04-25T10:08:14;97805.03;;;14.09
75811;BMP280;64449;50.016;19.954;2023-04-25T10:10:42;97806.98;;;14.25
75811;BMP280;64449;50.016;19.954;2023-04-25T10:13:08;97807.30;;;14.35
75811;BMP280;64449;50.016;19.954;2023-04-25T10:15:36;97809.66;;;14.43
75811;BMP280;64449;50.016;19.954;2023-04-25T10:18:02;97804.86;;;14.52
75811;BMP280;64449;50.016;19.954;2023-04-25T10:20:29;97807.67;;;14.55
75811;BMP280;64449;50.016;19.954;2023-04-25T10:22:59;97805.43;;;14.50
75811;BMP280;64449;50.016;19.954;2023-04-25T10:25:30;97804.19;;;14.53
75811;BMP280;64449;50.016;19.954;2023-04-25T10:27:55;97802.77;;;14.58
75811;BMP280;64449;50.016;19.954;2023-04-25T10:30:20;97801.39;;;14.70
75811;BMP280;64449;50.016;19.954;2023-04-25T10:32:46;97796.48;;;14.85
75811;BMP280;64449;50.016;19.954;2023-04-25T10:35:18;97795.89;;;15.02
75811;BMP280;64449;50.016;19.954;2023-04-25T10:40:23;97792.11;;;15.28
75811;BMP280;64449;50.016;19.954;2023-04-25T10:42:48;97788.69;;;15.44
75811;BMP280;64449;50.016;19.954;2023-04-25T10:45:14;97789.83;;;15.62
75811;BMP280;64449;50.016;19.954;2023-04-25T10:47:46;97788.08;;;15.79
75811;BMP280;64449;50.016;19.954;2023-04-25T10:50:14;97783.62;;;15.90
75811;BMP280;64449;50.016;19.954;2023-04-25T10:52:40;97785.37;;;15.98
75811;BMP280;64449;50.016;19.954;2023-04-25T10:55:06;97783.92;;;16.09
75811;BMP280;64449;50.016;19.954;2023-04-25T10:57:45;97784.27;;;16.20
75811;BMP280;64449;50.016;19.954;2023-04-25T11:00:16;97781.35;;;16.29
75811;BMP280;64449;50.016;19.954;2023-04-25T11:05:33;97773.90;;;16.38
75811;BMP280;64449;50.016;19.954;2023-04-25T11:08:00;97772.94;;;16.44
75811;BMP280;64449;50.016;19.954;2023-04-25T11:10:31;97769.21;;;16.54
75811;BMP280;64449;50.016;19.954;2023-04-25T11:12:57;97766.35;;;16.71
75811;BMP280;64449;50.016;19.954;2023-04-25T11:15:23;97765.08;;;16.86
75811;BMP280;64449;50.016;19.954;2023-04-25T11:17:53;97766.09;;;16.93
75811;BMP280;64449;50.016;19.954;2023-04-25T11:20:19;97766.05;;;16.90
75811;BMP280;64449;50.016;19.954;2023-04-25T11:22:46;97765.74;;;16.88
75811;BMP280;64449;50.016;19.954;2023-04-25T11:25:13;97763.21;;;16.81
75811;BMP280;64449;50.016;19.954;2023-04-25T11:30:17;97768.64;;;16.64
75811;BMP280;64449;50.016;19.954;2023-04-25T11:32:43;97767.09;;;16.51
75811;BMP280;64449;50.016;19.954;2023-04-25T11:35:09;97770.36;;;16.35
75811;BMP280;64449;50.016;19.954;2023-04-25T11:37:35;97771.08;;;16.20
75811;BMP280;64449;50.016;19.954;2023-04-25T11:40:03;97766.86;;;16.02
75811;BMP280;64449;50.016;19.954;2023-04-25T11:42:32;97769.81;;;15.81
75811;BMP280;64449;50.016;19.954;2023-04-25T11:44:59;97767.66;;;15.65
75811;BMP280;64449;50.016;19.954;2023-04-25T11:47:29;97768.49;;;15.56
75811;BMP280;64449;50.016;19.954;2023-04-25T11:49:55;97767.42;;;15.51
75811;BMP280;64449;50.016;19.954;2023-04-25T11:52:20;97768.58;;;15.48
75811;BMP280;64449;50.016;19.954;2023-04-25T11:54:46;97765.21;;;15.41
75811;BMP280;64449;50.016;19.954;2023-04-25T11:57:11;97764.31;;;15.34
75811;BMP280;64449;50.016;19.954;2023-04-25T11:59:37;97766.81;;;15.25
75811;BMP280;64449;50.016;19.954;2023-04-25T12:02:02;97767.38;;;15.16
75811;BMP280;64449;50.016;19.954;2023-04-25T12:04:30;97769.89;;;15.11
75811;BMP280;64449;50.016;19.954;2023-04-25T12:06:57;97768.42;;;15.07
75811;BMP280;64449;50.016;19.954;2023-04-25T12:09:33;97768.41;;;15.02
75811;BMP280;64449;50.016;19.954;2023-04-25T12:12:00;97768.02;;;14.96
75811;BMP280;64449;50.016;19.954;2023-04-25T12:14:33;97765.04;;;14.92
75811;BMP280;64449;50.016;19.954;2023-04-25T12:17:00;97766.81;;;14.89
75811;BMP280;64449;50.016;19.954;2023-04-25T12:19:31;97764.06;;;14.82
75811;BMP280;64449;50.016;19.954;2023-04-25T12:21:57;97764.67;;;14.79
75811;BMP280;64449;50.016;19.954;2023-04-25T12:24:25;97764.57;;;14.76
75811;BMP280;64449;50.016;19.954;2023-04-25T12:29:22;97768.50;;;14.72
75811;BMP280;64449;50.016;19.954;2023-04-25T12:31:49;97769.40;;;14.69
75811;BMP280;64449;50.016;19.954;2023-04-25T12:34:14;97772.27;;;14.66
75811;BMP280;64449;50.016;19.954;2023-04-25T12:36:40;97777.13;;;14.60
75811;BMP280;64449;50.016;19.954;2023-04-25T12:39:06;97771.11;;;14.49
75811;BMP280;64449;50.016;19.954;2023-04-25T12:41:32;97771.45;;;14.43
75811;BMP280;64449;50.016;19.954;2023-04-25T12:43:58;97769.27;;;14.40
75811;BMP280;64449;50.016;19.954;2023-04-25T12:46:23;97770.61;;;14.38
75811;BMP280;64449;50.016;19.954;2023-04-25T12:48:48;97770.31;;;14.41
75811;BMP280;64449;50.016;19.954;2023-04-25T12:51:14;97770.53;;;14.44
75811;BMP280;64449;50.016;19.954;2023-04-25T12:53:41;97772.67;;;14.45
75811;BMP280;64449;50.016;19.954;2023-04-25T12:56:09;97771.96;;;14.46
75811;BMP280;64449;50.016;19.954;2023-04-25T12:58:35;97768.80;;;14.38
75811;BMP280;64449;50.016;19.954;2023-04-25T13:01:00;97769.50;;;14.30
75811;BMP280;64449;50.016;19.954;2023-04-25T13:03:26;97774.71;;;14.26
75811;BMP280;64449;50.016;19.954;2023-04-25T13:05:52;97777.28;;;14.16
75811;BMP280;64449;50.016;19.954;2023-04-25T13:08:20;97779.65;;;14.09
75811;BMP280;64449;50.016;19.954;2023-04-25T13:10:47;97776.16;;;14.04
75811;BMP280;64449;50.016;19.954;2023-04-25T13:13:13;97776.58;;;14.02
75811;BMP280;64449;50.016;19.954;2023-04-25T13:15:38;97779.84;;;14.06
75811;BMP280;64449;50.016;19.954;2023-04-25T13:18:04;97782.06;;;14.12
75811;BMP280;64449;50.016;19.954;2023-04-25T13:20:30;97780.31;;;14.18
75811;BMP280;64449;50.016;19.954;2023-04-25T13:22:57;97778.73;;;14.27
75811;BMP280;64449;50.016;19.954;2023-04-25T13:25:22;97773.52;;;14.35
75811;BMP280;64449;50.016;19.954;2023-04-25T13:27:48;97774.27;;;14.41
75811;BMP280;64449;50.016;19.954;2023-04-25T13:30:13;97772.09;;;14.44
75811;BMP280;64449;50.016;19.954;2023-04-25T13:32:39;97772.21;;;14.43
75811;BMP280;64449;50.016;19.954;2023-04-25T13:35:12;97771.36;;;14.40
75811;BMP280;64449;50.016;19.954;2023-04-25T13:37:39;97775.10;;;14.39
75811;BMP280;64449;50.016;19.954;2023-04-25T13:40:07;97778.30;;;14.38
75811;BMP280;64449;50.016;19.954;2023-04-25T13:42:34;97779.98;;;14.40
75811;BMP280;64449;50.016;19.954;2023-04-25T13:45:00;97773.58;;;14.44
75811;BMP280;64449;50.016;19.954;2023-04-25T13:47:26;97773.41;;;14.46
75811;BMP280;64449;50.016;19.954;2023-04-25T13:49:52;97771.61;;;14.51
75811;BMP280;64449;50.016;19.954;2023-04-25T13:52:18;97774.70;;;14.60
75811;BMP280;64449;50.016;19.954;2023-04-25T13:54:43;97770.83;;;14.65
75811;BMP280;64449;50.016;19.954;2023-04-25T13:57:09;97774.16;;;14.70
75811;BMP280;64449;50.016;19.954;2023-04-25T13:59:36;97773.16;;;14.76
75811;BMP280;64449;50.016;19.954;2023-04-25T14:02:02;97770.41;;;14.79